sensor_id;sensor_type;location;lat;lon;timestamp;P1;P2;P0
84927;PMS7003;75189;50.640;19.242;2024-02-15T00:00:46;21;13;8
84927;PMS7003;75189;50.640;19.242;2024-02-15T00:06:58;16;14;10
84927;PMS7003;75189;50.640;19.242;2024-02-15T00:13:05;22;18;12
84927;PMS7003;75189;50.640;19.242;2024-02-15T00:19:12;21;15;10
84927;PMS7003;75189;50.640;19.242;2024-02-15T00:25:23;18;12;8
84927;PMS7003;75189;50.640;19.242;2024-02-15T00:31:32;20;15;10
84927;PMS7003;75189;50.640;19.242;2024-02-15T00:37:44;18;11;6
84927;PMS7003;75189;50.640;19.242;2024-02-15T00:43:52;13;10;6
84927;PMS7003;75189;50.640;19.242;2024-02-15T00:49:59;13;10;7
84927;PMS7003;75189;50.640;19.242;2024-02-15T00:56:06;13;10;6
84927;PMS7003;75189;50.640;19.242;2024-02-15T01:02:13;14;9;5
84927;PMS7003;75189;50.640;19.242;2024-02-15T01:08:20;17;11;8
84927;PMS7003;75189;50.640;19.242;2024-02-15T01:14:27;12;10;6
84927;PMS7003;75189;50.640;19.242;2024-02-15T01:20:38;14;11;7
84927;PMS7003;75189;50.640;19.242;2024-02-15T01:27:02;16;10;6
84927;PMS7003;75189;50.640;19.242;2024-02-15T01:33:09;18;13;8
84927;PMS7003;75189;50.640;19.242;2024-02-15T01:39:17;12;8;5
84927;PMS7003;75189;50.640;19.242;2024-02-15T01:45:24;15;11;7
84927;PMS7003;75189;50.640;19.242;2024-02-15T01:51:32;11;9;3
84927;PMS7003;75189;50.640;19.242;2024-02-15T01:57:45;22;17;12
84927;PMS7003;75189;50.640;19.242;2024-02-15T02:03:54;16;9;6
84927;PMS7003;75189;50.640;19.242;2024-02-15T02:10:02;18;12;6
84927;PMS7003;75189;50.640;19.242;2024-02-15T02:22:37;13;10;7
84927;PMS7003;75189;50.640;19.242;2024-02-15T02:28:44;14;10;6
84927;PMS7003;75189;50.640;19.242;2024-02-15T02:34:51;16;11;6
84927;PMS7003;75189;50.640;19.242;2024-02-15T02:41:06;19;14;9
84927;PMS7003;75189;50.640;19.242;2024-02-15T02:47:13;15;9;6
84927;PMS7003;75189;50.640;19.242;2024-02-15T02:53:20;11;9;6
84927;PMS7003;75189;50.640;19.242;2024-02-15T02:59:27;17;10;6
84927;PMS7003;75189;50.640;19.242;2024-02-15T03:05:36;13;12;8
84927;PMS7003;75189;50.640;19.242;2024-02-15T03:11:43;21;14;10
84927;PMS7003;75189;50.640;19.242;2024-02-15T03:17:51;13;12;7
84927;PMS7003;75189;50.640;19.242;2024-02-15T03:23:58;16;11;8
84927;PMS7003;75189;50.640;19.242;2024-02-15T03:30:05;16;12;9
84927;PMS7003;75189;50.640;19.242;2024-02-15T03:36:14;13;11;6
84927;PMS7003;75189;50.640;19.242;2024-02-15T03:42:27;13;9;4
84927;PMS7003;75189;50.640;19.242;2024-02-15T03:48:34;20;14;7
84927;PMS7003;75189;50.640;19.242;2024-02-15T03:54:53;19;16;11
84927;PMS7003;75189;50.640;19.242;2024-02-15T04:01:00;8;6;5
84927;PMS7003;75189;50.640;19.242;2024-02-15T04:07:08;15;11;6
84927;PMS7003;75189;50.640;19.242;2024-02-15T04:13:18;9;6;2
84927;PMS7003;75189;50.640;19.242;2024-02-15T04:19:25;16;14;7
84927;PMS7003;75189;50.640;19.242;2024-02-15T04:25:32;16;13;8
84927;PMS7003;75189;50.640;19.242;2024-02-15T04:31:40;16;11;7
84927;PMS7003;75189;50.640;19.242;2024-02-15T04:37:49;15;14;9
84927;PMS7003;75189;50.640;19.242;2024-02-15T04:44:10;13;11;7
84927;PMS7003;75189;50.640;19.242;2024-02-15T04:50:18;9;6;3
84927;PMS7003;75189;50.640;19.242;2024-02-15T04:56:25;11;8;5
84927;PMS7003;75189;50.640;19.242;2024-02-15T05:02:32;12;9;5
84927;PMS7003;75189;50.640;19.242;2024-02-15T05:08:39;16;11;6
84927;PMS7003;75189;50.640;19.242;2024-02-15T05:14:49;18;11;7
84927;PMS7003;75189;50.640;19.242;2024-02-15T05:20:57;11;11;7
84927;PMS7003;75189;50.640;19.242;2024-02-15T05:27:04;16;12;9
84927;PMS7003;75189;50.640;19.242;2024-02-15T05:33:27;11;11;8
84927;PMS7003;75189;50.640;19.242;2024-02-15T05:39:34;13;9;6
84927;PMS7003;75189;50.640;19.242;2024-02-15T05:45:41;18;12;8
84927;PMS7003;75189;50.640;19.242;2024-02-15T05:51:48;14;10;6
84927;PMS7003;75189;50.640;19.242;2024-02-15T05:57:55;12;8;5
84927;PMS7003;75189;50.640;19.242;2024-02-15T06:04:02;16;10;4
84927;PMS7003;75189;50.640;19.242;2024-02-15T06:10:14;18;12;7
84927;PMS7003;75189;50.640;19.242;2024-02-15T06:16:21;13;9;7
84927;PMS7003;75189;50.640;19.242;2024-02-15T06:22:44;14;11;7
84927;PMS7003;75189;50.640;19.242;2024-02-15T06:28:51;19;15;10
84927;PMS7003;75189;50.640;19.242;2024-02-15T06:35:10;13;10;7
84927;PMS7003;75189;50.640;19.242;2024-02-15T06:41:29;22;17;10
84927;PMS7003;75189;50.640;19.242;2024-02-15T06:47:36;13;11;6
84927;PMS7003;75189;50.640;19.242;2024-02-15T06:53:43;16;12;7
84927;PMS7003;75189;50.640;19.242;2024-02-15T06:59:50;19;15;8
84927;PMS7003;75189;50.640;19.242;2024-02-15T07:05:58;15;12;7
84927;PMS7003;75189;50.640;19.242;2024-02-15T07:12:05;16;11;6
84927;PMS7003;75189;50.640;19.242;2024-02-15T07:18:15;14;8;5
84927;PMS7003;75189;50.640;19.242;2024-02-15T07:24:28;26;21;13
84927;PMS7003;75189;50.640;19.242;2024-02-15T07:30:35;24;19;13
84927;PMS7003;75189;50.640;19.242;2024-02-15T07:36:43;16;10;7
84927;PMS7003;75189;50.640;19.242;2024-02-15T07:42:51;18;14;8
84927;PMS7003;75189;50.640;19.242;2024-02-15T07:48:58;15;11;7
84927;PMS7003;75189;50.640;19.242;2024-02-15T07:55:06;13;10;5
84927;PMS7003;75189;50.640;19.242;2024-02-15T08:01:19;21;18;11
84927;PMS7003;75189;50.640;19.242;2024-02-15T08:07:30;24;20;14
84927;PMS7003;75189;50.640;19.242;2024-02-15T08:13:50;19;12;7
84927;PMS7003;75189;50.640;19.242;2024-02-15T08:20:00;18;16;10
84927;PMS7003;75189;50.640;19.242;2024-02-15T08:26:07;34;28;17
84927;PMS7003;75189;50.640;19.242;2024-02-15T08:32:17;41;29;17
84927;PMS7003;75189;50.640;19.242;2024-02-15T08:38:24;29;24;15
84927;PMS7003;75189;50.640;19.242;2024-02-15T08:44:31;16;12;7
84927;PMS7003;75189;50.640;19.242;2024-02-15T08:50:40;44;31;19
84927;PMS7003;75189;50.640;19.242;2024-02-15T08:56:48;24;18;11
84927;PMS7003;75189;50.640;19.242;2024-02-15T09:02:55;20;17;12
84927;PMS7003;75189;50.640;19.242;2024-02-15T09:09:03;26;22;15
84927;PMS7003;75189;50.640;19.242;2024-02-15T09:15:10;23;19;12
84927;PMS7003;75189;50.640;19.242;2024-02-15T09:21:17;29;25;17
84927;PMS7003;75189;50.640;19.242;2024-02-15T09:27:24;32;25;16
84927;PMS7003;75189;50.640;19.242;2024-02-15T09:33:31;26;16;9
84927;PMS7003;75189;50.640;19.242;2024-02-15T09:39:54;19;17;9
84927;PMS7003;75189;50.640;19.242;2024-02-15T09:46:01;27;18;12
84927;PMS7003;75189;50.640;19.242;2024-02-15T09:52:13;20;16;10
84927;PMS7003;75189;50.640;19.242;2024-02-15T09:58:24;28;20;13
84927;PMS7003;75189;50.640;19.242;2024-02-15T10:04:31;22;17;10
84927;PMS7003;75189;50.640;19.242;2024-02-15T10:10:41;16;14;9
84927;PMS7003;75189;50.640;19.242;2024-02-15T10:16:48;14;12;8
84927;PMS7003;75189;50.640;19.242;2024-02-15T10:29:15;10;7;4
84927;PMS7003;75189;50.640;19.242;2024-02-15T10:35:24;12;9;6
84927;PMS7003;75189;50.640;19.242;2024-02-15T10:41:31;7;5;4
84927;PMS7003;75189;50.640;19.242;2024-02-15T10:47:38;9;7;5
84927;PMS7003;75189;50.640;19.242;2024-02-15T10:53:51;5;4;2
84927;PMS7003;75189;50.640;19.242;2024-02-15T11:00:04;7;4;3
84927;PMS7003;75189;50.640;19.242;2024-02-15T11:06:19;5;4;3
84927;PMS7003;75189;50.640;19.242;2024-02-15T11:13:00;7;6;4
84927;PMS7003;75189;50.640;19.242;2024-02-15T11:19:09;7;4;2
84927;PMS7003;75189;50.640;19.242;2024-02-15T11:25:17;9;6;3
84927;PMS7003;75189;50.640;19.242;2024-02-15T11:37:54;9;6;2
84927;PMS7003;75189;50.640;19.242;2024-02-15T11:44:06;8;6;4
84927;PMS7003;75189;50.640;19.242;2024-02-15T12:03:17;6;6;4
84927;PMS7003;75189;50.640;19.242;2024-02-15T12:09:37;5;4;2
84927;PMS7003;75189;50.640;19.242;2024-02-15T12:15:57;7;4;2
84927;PMS7003;75189;50.640;19.242;2024-02-15T12:28:37;5;4;3
84927;PMS7003;75189;50.640;19.242;2024-02-15T12:35:12;8;5;3
84927;PMS7003;75189;50.640;19.242;2024-02-15T12:41:26;5;5;3
84927;PMS7003;75189;50.640;19.242;2024-02-15T12:47:33;5;3;2
84927;PMS7003;75189;50.640;19.242;2024-02-15T12:53:40;3;3;2
84927;PMS7003;75189;50.640;19.242;2024-02-15T12:59:51;7;5;3
84927;PMS7003;75189;50.640;19.242;2024-02-15T13:05:58;6;6;4
84927;PMS7003;75189;50.640;19.242;2024-02-15T13:14:01;7;7;4
84927;PMS7003;75189;50.640;19.242;2024-02-15T13:20:11;6;5;3
84927;PMS7003;75189;50.640;19.242;2024-02-15T13:26:22;6;5;2
84927;PMS7003;75189;50.640;19.242;2024-02-15T13:32:32;3;2;1
84927;PMS7003;75189;50.640;19.242;2024-02-15T13:38:39;6;5;3
84927;PMS7003;75189;50.640;19.242;2024-02-15T13:44:46;4;3;2
84927;PMS7003;75189;50.640;19.242;2024-02-15T13:50:55;7;5;3
84927;PMS7003;75189;50.640;19.242;2024-02-15T13:57:17;6;6;3
84927;PMS7003;75189;50.640;19.242;2024-02-15T14:03:25;5;5;2
84927;PMS7003;75189;50.640;19.242;2024-02-15T14:09:32;2;2;1
84927;PMS7003;75189;50.640;19.242;2024-02-15T14:15:39;6;5;3
84927;PMS7003;75189;50.640;19.242;2024-02-15T14:21:47;3;2;1
84927;PMS7003;75189;50.640;19.242;2024-02-15T14:27:54;3;2;1
84927;PMS7003;75189;50.640;19.242;2024-02-15T14:34:03;5;4;2
84927;PMS7003;75189;50.640;19.242;2024-02-15T14:40:11;3;2;1
84927;PMS7003;75189;50.640;19.242;2024-02-15T14:46:34;2;2;1
84927;PMS7003;75189;50.640;19.242;2024-02-15T14:52:42;3;2;1
84927;PMS7003;75189;50.640;19.242;2024-02-15T14:58:49;5;3;1
84927;PMS7003;75189;50.640;19.242;2024-02-15T15:04:56;2;2;1
84927;PMS7003;75189;50.640;19.242;2024-02-15T15:11:16;3;2;2
84927;PMS7003;75189;50.640;19.242;2024-02-15T15:17:35;3;2;1
84927;PMS7003;75189;50.640;19.242;2024-02-15T15:23:45;8;4;2
84927;PMS7003;75189;50.640;19.242;2024-02-15T15:29:52;7;4;1
84927;PMS7003;75189;50.640;19.242;2024-02-15T15:36:02;4;3;2
84927;PMS7003;75189;50.640;19.242;2024-02-15T15:42:11;6;4;3
84927;PMS7003;75189;50.640;19.242;2024-02-15T15:48:19;3;2;1
84927;PMS7003;75189;50.640;19.242;2024-02-15T15:54:26;3;2;2
84927;PMS7003;75189;50.640;19.242;2024-02-15T16:00:35;6;3;2
84927;PMS7003;75189;50.640;19.242;2024-02-15T16:06:43;2;2;1
84927;PMS7003;75189;50.640;19.242;2024-02-15T16:12:50;3;2;1
84927;PMS7003;75189;50.640;19.242;2024-02-15T16:19:02;7;3;1
84927;PMS7003;75189;50.640;19.242;2024-02-15T16:25:12;2;2;1
84927;PMS7003;75189;50.640;19.242;2024-02-15T16:31:20;6;3;1
84927;PMS7003;75189;50.640;19.242;2024-02-15T16:37:27;5;4;2
84927;PMS7003;75189;50.640;19.242;2024-02-15T16:43:34;7;4;1
84927;PMS7003;75189;50.640;19.242;2024-02-15T16:49:41;5;4;3
84927;PMS7003;75189;50.640;19.242;2024-02-15T16:55:49;6;4;2
84927;PMS7003;75189;50.640;19.242;2024-02-15T17:01:55;5;2;1
84927;PMS7003;75189;50.640;19.242;2024-02-15T17:08:03;5;4;1
84927;PMS7003;75189;50.640;19.242;2024-02-15T17:14:29;8;4;2
84927;PMS7003;75189;50.640;19.242;2024-02-15T17:20:36;8;6;3
84927;PMS7003;75189;50.640;19.242;2024-02-15T17:26:43;8;5;3
84927;PMS7003;75189;50.640;19.242;2024-02-15T17:32:50;14;7;6
84927;PMS7003;75189;50.640;19.242;2024-02-15T17:38:57;11;8;4
84927;PMS7003;75189;50.640;19.242;2024-02-15T17:45:08;10;9;6
84927;PMS7003;75189;50.640;19.242;2024-02-15T17:51:16;7;6;4
84927;PMS7003;75189;50.640;19.242;2024-02-15T17:57:23;15;10;6
84927;PMS7003;75189;50.640;19.242;2024-02-15T18:03:46;15;10;5
84927;PMS7003;75189;50.640;19.242;2024-02-15T18:09:54;11;9;6
84927;PMS7003;75189;50.640;19.242;2024-02-15T18:16:05;14;10;7
84927;PMS7003;75189;50.640;19.242;2024-02-15T18:22:19;8;7;4
84927;PMS7003;75189;50.640;19.242;2024-02-15T18:28:36;5;4;2
84927;PMS7003;75189;50.640;19.242;2024-02-15T18:34:43;11;8;4
84927;PMS7003;75189;50.640;19.242;2024-02-15T18:40:53;11;9;5
84927;PMS7003;75189;50.640;19.242;2024-02-15T18:47:03;20;13;7
84927;PMS7003;75189;50.640;19.242;2024-02-15T18:53:10;12;10;7
84927;PMS7003;75189;50.640;19.242;2024-02-15T18:59:27;12;10;6
84927;PMS7003;75189;50.640;19.242;2024-02-15T19:05:36;18;15;10
84927;PMS7003;75189;50.640;19.242;2024-02-15T19:11:45;22;14;10
84927;PMS7003;75189;50.640;19.242;2024-02-15T19:17:56;14;10;8
84927;PMS7003;75189;50.640;19.242;2024-02-15T19:24:08;17;11;6
84927;PMS7003;75189;50.640;19.242;2024-02-15T19:30:16;13;11;6
84927;PMS7003;75189;50.640;19.242;2024-02-15T19:36:55;17;12;8
84927;PMS7003;75189;50.640;19.242;2024-02-15T19:43:12;24;18;10
84927;PMS7003;75189;50.640;19.242;2024-02-15T19:49:24;23;12;8
84927;PMS7003;75189;50.640;19.242;2024-02-15T19:55:33;29;19;12
84927;PMS7003;75189;50.640;19.242;2024-02-15T20:01:40;23;18;11
84927;PMS7003;75189;50.640;19.242;2024-02-15T20:07:50;28;18;10
84927;PMS7003;75189;50.640;19.242;2024-02-15T20:13:56;25;22;12
84927;PMS7003;75189;50.640;19.242;2024-02-15T20:20:08;39;27;14
84927;PMS7003;75189;50.640;19.242;2024-02-15T20:26:15;27;20;11
84927;PMS7003;75189;50.640;19.242;2024-02-15T20:32:26;32;23;13
84927;PMS7003;75189;50.640;19.242;2024-02-15T20:38:33;23;17;8
84927;PMS7003;75189;50.640;19.242;2024-02-15T20:44:40;25;19;12
84927;PMS7003;75189;50.640;19.242;2024-02-15T20:50:48;36;26;15
84927;PMS7003;75189;50.640;19.242;2024-02-15T20:56:57;36;25;16
84927;PMS7003;75189;50.640;19.242;2024-02-15T21:03:04;24;19;12
84927;PMS7003;75189;50.640;19.242;2024-02-15T21:09:11;27;22;13
84927;PMS7003;75189;50.640;19.242;2024-02-15T21:15:30;58;37;22
84927;PMS7003;75189;50.640;19.242;2024-02-15T21:21:36;39;27;18
84927;PMS7003;75189;50.640;19.242;2024-02-15T21:27:43;31;21;11
84927;PMS7003;75189;50.640;19.242;2024-02-15T21:33:50;30;23;15
84927;PMS7003;75189;50.640;19.242;2024-02-15T21:39:59;41;30;17
84927;PMS7003;75189;50.640;19.242;2024-02-15T21:46:12;29;25;16
84927;PMS7003;75189;50.640;19.242;2024-02-15T21:52:18;57;35;22
84927;PMS7003;75189;50.640;19.242;2024-02-15T21:58:26;35;26;18
84927;PMS7003;75189;50.640;19.242;2024-02-15T22:04:47;43;36;22
84927;PMS7003;75189;50.640;19.242;2024-02-15T22:10:55;38;27;16
84927;PMS7003;75189;50.640;19.242;2024-02-15T22:17:03;34;25;14
84927;PMS7003;75189;50.640;19.242;2024-02-15T22:23:11;34;24;15
84927;PMS7003;75189;50.640;19.242;2024-02-15T22:29:17;52;37;22
84927;PMS7003;75189;50.640;19.242;2024-02-15T22:35:24;40;28;18
84927;PMS7003;75189;50.640;19.242;2024-02-15T22:41:31;46;33;20
84927;PMS7003;75189;50.640;19.242;2024-02-15T22:47:39;49;36;23
84927;PMS7003;75189;50.640;19.242;2024-02-15T22:54:04;49;38;24
84927;PMS7003;75189;50.640;19.242;2024-02-15T23:00:12;41;33;21
84927;PMS7003;75189;50.640;19.242;2024-02-15T23:06:19;50;34;21
84927;PMS7003;75189;50.640;19.242;2024-02-15T23:12:27;42;32;19
84927;PMS7003;75189;50.640;19.242;2024-02-15T23:18:33;41;28;17
84927;PMS7003;75189;50.640;19.242;2024-02-15T23:24:40;46;35;18
84927;PMS7003;75189;50.640;19.242;2024-02-15T23:30:47;38;26;16
84927;PMS7003;75189;50.640;19.242;2024-02-15T23:36:54;37;28;18
84927;PMS7003;75189;50.640;19.242;2024-02-15T23:43:22;47;33;18
84927;PMS7003;75189;50.640;19.242;2024-02-15T23:49:29;43;32;18
84927;PMS7003;75189;50.640;19.242;2024-02-15T23:55:36;43;22;12
